Time;durP1;ratioP1;P1;durP2;ratioP2;P2;SDS_P1;SDS_P2;PMS_P1;PMS_P2;Temp;Humidity;BMP_temperature;BMP_pressure;BME280_temperature;BME280_humidity;BME280_pressure;Samples;Min_cycle;Max_cycle;Signal;HPM_P1;HPM_P2
2021/07/30 00:00:58;;;;;;;;;;;20.30;99.90;;;;;;2088832;28;718;-63
2021/07/30 00:02:19;;;;;;;;;;;20.30;99.90;;;;;;2098305;28;983;-63
2021/07/30 00:03:38;;;;;;;;;;;20.30;99.90;;;;;;2092647;28;999;-63
2021/07/30 00:04:57;;;;;;;;;;;20.30;99.90;;;;;;2088606;28;1303;-61
2021/07/30 00:06:16;;;;;;;;;;;20.30;99.90;;;;;;2085632;28;1012;-62
2021/07/30 00:07:35;;;;;;;;;;;20.30;99.90;;;;;;2088694;28;1965;-63
2021/07/30 00:08:55;;;;;;;;;;;20.30;99.90;;;;;;2090708;28;746;-63
2021/07/30 00:10:14;;;;;;;;;;;20.30;99.90;;;;;;2090302;28;791;-63
2021/07/30 00:11:33;;;;;;;;;;;20.30;99.90;;;;;;2107310;28;731;-62
2021/07/30 00:12:55;;;;;;;;;;;20.30;99.90;;;;;;2097478;28;1049;-63
2021/07/30 00:14:14;;;;;;;;;;;20.30;99.90;;;;;;2098712;28;770;-63
2021/07/30 00:15:34;;;;;;;;;;;20.30;99.90;;;;;;2090303;28;770;-63
2021/07/30 00:16:53;;;;;;;;;;;20.30;99.90;;;;;;2090217;28;1680;-63
2021/07/30 00:18:12;;;;;;;;;;;20.30;99.90;;;;;;2090868;28;740;-61
2021/07/30 00:19:33;;;;;;;;;;;20.30;99.90;;;;;;2082466;28;721;-63
2021/07/30 00:20:52;;;;;;;;;;;20.30;99.90;;;;;;2086760;28;745;-63
2021/07/30 00:22:11;;;;;;;;;;;20.30;99.90;;;;;;2082466;28;763;-62
2021/07/30 00:23:30;;;;;;;;;;;20.30;99.90;;;;;;2090499;28;729;-63
2021/07/30 00:24:50;;;;;;;;;;;20.30;99.90;;;;;;2085454;28;719;-61
2021/07/30 00:26:09;;;;;;;;;;;20.30;99.90;;;;;;2095455;28;748;-63
2021/07/30 00:27:28;;;;;;;;;;;20.30;99.90;;;;;;2085379;28;1465;-64
2021/07/30 00:28:48;;;;;;;;;;;20.30;99.90;;;;;;2081993;28;1910;-61
2021/07/30 00:30:07;;;;;;;;;;;20.30;99.90;;;;;;2078938;28;1709;-61
2021/07/30 00:31:27;;;;;;;;;;;20.30;99.90;;;;;;2081810;28;750;-62
2021/07/30 00:32:46;;;;;;;;;;;20.20;99.90;;;;;;2098366;28;955;-64
2021/07/30 00:34:05;;;;;;;;;;;20.20;99.90;;;;;;2093920;28;1032;-62
2021/07/30 00:35:24;;;;;;;;;;;20.20;99.90;;;;;;2096079;28;1655;-64
2021/07/30 00:36:43;;;;;;;;;;;20.20;99.90;;;;;;2090268;28;723;-63
2021/07/30 00:38:03;;;;;;;;;;;20.20;99.90;;;;;;2078796;28;1375;-62
2021/07/30 00:39:22;;;;;;;;;;;20.20;99.90;;;;;;2083700;28;725;-63
2021/07/30 00:40:41;;;;;;;;;;;20.20;99.90;;;;;;2086464;28;721;-61
2021/07/30 00:42:02;;;;;;;;;;;20.20;99.90;;;;;;2086952;28;2087;-62
2021/07/30 00:43:21;;;;;;;;;;;20.20;99.90;;;;;;2087323;28;792;-63
2021/07/30 00:44:40;;;;;;;;;;;20.20;99.90;;;;;;2087261;28;721;-62
2021/07/30 00:45:59;;;;;;;;;;;20.20;99.90;;;;;;2090462;28;714;-63
2021/07/30 00:47:19;;;;;;;;;;;20.20;99.90;;;;;;2094860;28;1318;-63
2021/07/30 00:48:38;;;;;;;;;;;20.20;99.90;;;;;;2093693;28;1965;-62
2021/07/30 00:49:58;;;;;;;;;;;20.20;99.90;;;;;;2089981;28;1767;-63
2021/07/30 00:51:17;;;;;;;;;;;20.20;99.90;;;;;;2095140;28;716;-65
2021/07/30 00:52:36;;;;;;;;;;;20.20;99.90;;;;;;2093898;28;740;-63
2021/07/30 00:53:55;;;;;;;;;;;20.20;99.90;;;;;;2089931;28;1747;-61
2021/07/30 00:55:15;;;;;;;;;;;20.20;99.90;;;;;;2090303;28;752;-62
2021/07/30 00:56:34;;;;;;;;;;;20.20;99.90;;;;;;2090122;28;843;-63
2021/07/30 00:57:53;;;;;;;;;;;20.20;99.90;;;;;;2090113;28;1435;-62
2021/07/30 00:59:12;;;;;;;;;;;20.20;99.90;;;;;;2085781;28;741;-62
2021/07/30 01:00:31;;;;;;;;;;;20.20;99.90;;;;;;2097889;28;737;-64
2021/07/30 01:01:51;;;;;;;;;;;20.20;99.90;;;;;;2091602;28;1042;-62
2021/07/30 01:03:10;;;;;;;;;;;20.20;99.90;;;;;;2086023;28;1718;-63
2021/07/30 01:04:29;;;;;;;;;;;20.20;99.90;;;;;;2090178;28;1061;-63
2021/07/30 01:05:49;;;;;;;;;;;20.20;99.90;;;;;;2091452;28;1484;-62
2021/07/30 01:07:08;;;;;;;;;;;20.20;99.90;;;;;;2078587;28;1381;-65
2021/07/30 01:08:27;;;;;;;;;;;20.20;99.90;;;;;;2086615;28;1898;-63
2021/07/30 01:09:46;;;;;;;;;;;20.20;99.90;;;;;;2081900;28;727;-65
2021/07/30 01:11:05;;;;;;;;;;;20.20;99.90;;;;;;2083752;28;727;-63
2021/07/30 01:12:25;;;;;;;;;;;20.20;99.90;;;;;;2090395;28;779;-62
2021/07/30 01:13:44;;;;;;;;;;;20.20;99.90;;;;;;2081791;28;722;-63
2021/07/30 01:15:04;;;;;;;;;;;20.20;99.90;;;;;;2091830;28;721;-62
2021/07/30 01:16:23;;;;;;;;;;;20.20;99.90;;;;;;2090080;28;761;-63
2021/07/30 01:17:42;;;;;;;;;;;20.20;99.90;;;;;;2086123;28;1989;-63
2021/07/30 01:19:01;;;;;;;;;;;20.20;99.90;;;;;;2077883;28;1781;-61
2021/07/30 01:20:24;;;;;;;;;;;20.20;99.90;;;;;;2083711;28;1805;-63
2021/07/30 01:21:43;;;;;;;;;;;20.20;99.90;;;;;;2106845;28;739;-63
2021/07/30 01:23:02;;;;;;;;;;;20.20;99.90;;;;;;2084969;28;762;-62
2021/07/30 01:24:22;;;;;;;;;;;20.20;99.90;;;;;;2083774;28;760;-61
2021/07/30 01:25:41;;;;;;;;;;;20.20;99.90;;;;;;2086785;28;733;-63
2021/07/30 01:27:00;;;;;;;;;;;20.20;99.90;;;;;;2086636;28;760;-63
2021/07/30 01:28:19;;;;;;;;;;;20.20;99.90;;;;;;2090168;28;1914;-64
2021/07/30 01:29:39;;;;;;;;;;;20.20;99.90;;;;;;2089092;28;1441;-62
2021/07/30 01:30:59;;;;;;;;;;;20.10;99.90;;;;;;2082266;28;1607;-63
2021/07/30 01:32:19;;;;;;;;;;;20.10;99.90;;;;;;2106816;28;1282;-64
2021/07/30 01:33:38;;;;;;;;;;;20.20;99.90;;;;;;2093654;28;1487;-64
2021/07/30 01:34:58;;;;;;;;;;;20.10;99.90;;;;;;2093441;28;1034;-61
2021/07/30 01:36:17;;;;;;;;;;;20.10;99.90;;;;;;2090023;28;1008;-60
2021/07/30 01:37:37;;;;;;;;;;;20.10;99.90;;;;;;2086656;28;1312;-62
2021/07/30 01:38:56;;;;;;;;;;;20.10;99.90;;;;;;2095099;28;741;-61
2021/07/30 01:40:15;;;;;;;;;;;20.10;99.90;;;;;;2081155;28;760;-62
2021/07/30 01:41:35;;;;;;;;;;;20.10;99.90;;;;;;2083367;28;1686;-63
2021/07/30 01:42:54;;;;;;;;;;;20.10;99.90;;;;;;2086442;28;713;-62
2021/07/30 01:44:14;;;;;;;;;;;20.10;99.90;;;;;;2086139;28;1717;-62
2021/07/30 01:45:34;;;;;;;;;;;20.10;99.90;;;;;;2086695;28;786;-62
2021/07/30 01:46:53;;;;;;;;;;;20.10;99.90;;;;;;2089735;28;737;-66
2021/07/30 01:48:12;;;;;;;;;;;20.10;99.90;;;;;;2089661;28;1902;-63
2021/07/30 01:49:31;;;;;;;;;;;20.10;99.90;;;;;;2078538;28;758;-63
2021/07/30 01:50:51;;;;;;;;;;;20.10;99.90;;;;;;2086498;28;1992;-64
2021/07/30 01:52:10;;;;;;;;;;;20.10;99.90;;;;;;2089773;28;1117;-63
2021/07/30 01:53:29;;;;;;;;;;;20.20;99.90;;;;;;2089959;28;949;-63
2021/07/30 01:54:48;;;;;;;;;;;20.10;99.90;;;;;;2073383;28;741;-63
2021/07/30 01:56:08;;;;;;;;;;;20.20;99.90;;;;;;2078724;28;762;-64
2021/07/30 01:57:27;;;;;;;;;;;20.10;99.90;;;;;;2098051;28;1405;-64
2021/07/30 01:58:46;;;;;;;;;;;20.10;99.90;;;;;;2088483;28;718;-63
2021/07/30 02:00:06;;;;;;;;;;;20.10;99.90;;;;;;2088971;28;756;-63
2021/07/30 02:01:31;;;;;;;;;;;20.10;99.90;;;;;;2087156;28;791;-64
2021/07/30 02:02:50;;;;;;;;;;;20.10;99.90;;;;;;2113152;28;910;-63
2021/07/30 02:04:09;;;;;;;;;;;20.10;99.90;;;;;;2096171;28;1288;-65
2021/07/30 02:05:28;;;;;;;;;;;20.10;99.90;;;;;;2105808;28;746;-64
2021/07/30 02:06:48;;;;;;;;;;;20.10;99.90;;;;;;2084347;28;1614;-65
2021/07/30 02:08:07;;;;;;;;;;;20.10;99.90;;;;;;2078047;28;1959;-60
2021/07/30 02:09:29;;;;;;;;;;;20.10;99.90;;;;;;2094596;28;1107;-65
2021/07/30 02:10:49;;;;;;;;;;;20.10;99.90;;;;;;2089273;28;1268;-63
2021/07/30 02:12:08;;;;;;;;;;;20.10;99.90;;;;;;2087065;28;1379;-62
2021/07/30 02:15:06;;;;;;;;;;;20.10;99.90;;;;;;2088493;28;1261;-64
2021/07/30 02:16:25;;;;;;;;;;;20.10;99.90;;;;;;2088159;28;1093;-63
2021/07/30 02:17:44;;;;;;;;;;;20.10;99.90;;;;;;2096732;28;1393;-61
2021/07/30 02:19:04;;;;;;;;;;;20.10;99.90;;;;;;2089017;28;1270;-62
2021/07/30 02:20:23;;;;;;;;;;;20.10;99.90;;;;;;2090144;28;1182;-62
2021/07/30 02:21:42;;;;;;;;;;;20.10;99.90;;;;;;2088845;28;1155;-63
2021/07/30 02:23:01;;;;;;;;;;;20.10;99.90;;;;;;2086003;28;1139;-64
2021/07/30 02:24:20;;;;;;;;;;;20.10;99.90;;;;;;2094330;28;1496;-61
2021/07/30 02:25:39;;;;;;;;;;;20.10;99.90;;;;;;2093379;28;1224;-63
2021/07/30 02:26:59;;;;;;;;;;;20.10;99.90;;;;;;2087286;28;1533;-61
2021/07/30 02:28:18;;;;;;;;;;;20.10;99.90;;;;;;2100012;28;2011;-61
2021/07/30 02:29:37;;;;;;;;;;;20.10;99.90;;;;;;2090184;28;1433;-60
2021/07/30 02:30:56;;;;;;;;;;;20.10;99.90;;;;;;2086114;28;1281;-64
2021/07/30 02:32:15;;;;;;;;;;;20.10;99.90;;;;;;2095574;28;1241;-63
2021/07/30 02:33:35;;;;;;;;;;;20.00;99.90;;;;;;2090138;28;1127;-63
2021/07/30 02:34:54;;;;;;;;;;;20.10;99.90;;;;;;2097230;28;1364;-63
2021/07/30 02:36:13;;;;;;;;;;;20.10;99.90;;;;;;2091765;28;1298;-63
2021/07/30 02:37:33;;;;;;;;;;;20.10;99.90;;;;;;2103704;28;1435;-63
2021/07/30 02:38:52;;;;;;;;;;;20.10;99.90;;;;;;2089406;28;1062;-62
2021/07/30 02:40:11;;;;;;;;;;;20.10;99.90;;;;;;2090268;28;1375;-61
2021/07/30 02:41:30;;;;;;;;;;;20.10;99.90;;;;;;2080355;28;1112;-63
2021/07/30 02:42:50;;;;;;;;;;;20.10;99.90;;;;;;2085322;28;1312;-63
2021/07/30 02:44:09;;;;;;;;;;;20.10;99.90;;;;;;2088743;28;1644;-63
2021/07/30 02:45:28;;;;;;;;;;;20.00;99.90;;;;;;2091338;28;1358;-62
2021/07/30 02:46:47;;;;;;;;;;;20.10;99.90;;;;;;2086033;28;1205;-61
2021/07/30 02:48:07;;;;;;;;;;;20.10;99.90;;;;;;2087415;28;1898;-63
2021/07/30 02:49:26;;;;;;;;;;;20.00;99.90;;;;;;2097180;28;1169;-63
2021/07/30 02:50:47;;;;;;;;;;;20.00;99.90;;;;;;2092010;28;1099;-64
2021/07/30 02:52:06;;;;;;;;;;;20.10;99.90;;;;;;2088625;28;1440;-64
2021/07/30 02:53:25;;;;;;;;;;;20.00;99.90;;;;;;2095302;28;1103;-62
2021/07/30 02:54:44;;;;;;;;;;;20.10;99.90;;;;;;2092197;28;1412;-62
2021/07/30 02:56:04;;;;;;;;;;;20.00;99.90;;;;;;2089234;28;1082;-62
2021/07/30 02:57:23;;;;;;;;;;;20.00;99.90;;;;;;2086304;28;1450;-63
2021/07/30 02:58:42;;;;;;;;;;;20.00;99.90;;;;;;2088298;28;1598;-66
2021/07/30 03:00:01;;;;;;;;;;;20.00;99.90;;;;;;2089384;28;1326;-65
2021/07/30 03:01:20;;;;;;;;;;;20.00;99.90;;;;;;2084590;28;1184;-62
2021/07/30 03:02:40;;;;;;;;;;;20.00;99.90;;;;;;2085699;28;1352;-63
2021/07/30 03:03:59;;;;;;;;;;;20.00;99.90;;;;;;2076001;28;1383;-61
2021/07/30 03:05:18;;;;;;;;;;;20.00;99.90;;;;;;2093959;28;1204;-60
2021/07/30 03:06:37;;;;;;;;;;;20.10;99.90;;;;;;2078994;28;1260;-64
2021/07/30 03:07:57;;;;;;;;;;;20.10;99.90;;;;;;2080809;28;1328;-64
2021/07/30 03:09:16;;;;;;;;;;;20.10;99.90;;;;;;2080596;28;1062;-63
2021/07/30 03:10:35;;;;;;;;;;;20.10;99.90;;;;;;2083637;28;1090;-63
2021/07/30 03:11:54;;;;;;;;;;;20.10;99.90;;;;;;2086381;28;1314;-64
2021/07/30 03:13:13;;;;;;;;;;;20.10;99.90;;;;;;2085288;28;1693;-63
2021/07/30 03:14:33;;;;;;;;;;;20.10;99.90;;;;;;2087959;28;1778;-62
2021/07/30 03:15:53;;;;;;;;;;;20.10;99.90;;;;;;2085212;28;1181;-61
2021/07/30 03:17:12;;;;;;;;;;;20.10;99.90;;;;;;2087647;28;1338;-62
2021/07/30 03:18:32;;;;;;;;;;;20.10;99.90;;;;;;2083832;28;1156;-63
2021/07/30 03:19:51;;;;;;;;;;;20.10;99.90;;;;;;2088441;28;1306;-63
2021/07/30 03:21:10;;;;;;;;;;;20.10;99.90;;;;;;2087286;28;1187;-62
2021/07/30 03:22:30;;;;;;;;;;;20.10;99.90;;;;;;2082513;28;1132;-63
2021/07/30 03:23:49;;;;;;;;;;;20.10;99.90;;;;;;2086916;28;1645;-64
2021/07/30 03:25:08;;;;;;;;;;;20.10;99.90;;;;;;2088092;28;1369;-62
2021/07/30 03:26:27;;;;;;;;;;;20.10;99.90;;;;;;2082849;28;1129;-63
2021/07/30 03:27:47;;;;;;;;;;;20.10;99.90;;;;;;2084589;28;1613;-62
2021/07/30 03:29:06;;;;;;;;;;;20.10;99.90;;;;;;2089389;28;1323;-63
2021/07/30 03:30:25;;;;;;;;;;;20.10;99.90;;;;;;2085489;28;1320;-62
2021/07/30 03:31:47;;;;;;;;;;;20.10;99.90;;;;;;2084030;28;1123;-62
2021/07/30 03:33:06;;;;;;;;;;;20.10;99.90;;;;;;2085602;28;1114;-63
2021/07/30 03:34:27;;;;;;;;;;;20.10;99.90;;;;;;2092538;28;1463;-61
2021/07/30 03:35:47;;;;;;;;;;;20.10;99.90;;;;;;2090395;28;1166;-63
2021/07/30 03:37:06;;;;;;;;;;;20.10;99.90;;;;;;2086685;28;1123;-62
2021/07/30 03:38:25;;;;;;;;;;;20.10;99.90;;;;;;2083297;28;1265;-63
2021/07/30 03:39:45;;;;;;;;;;;20.10;99.90;;;;;;2069434;28;1328;-61
2021/07/30 03:41:04;;;;;;;;;;;20.10;99.90;;;;;;2088789;28;1314;-62
2021/07/30 03:42:23;;;;;;;;;;;20.10;99.90;;;;;;2088017;28;1622;-63
2021/07/30 03:43:42;;;;;;;;;;;20.10;99.90;;;;;;2088993;28;1160;-63
2021/07/30 03:45:02;;;;;;;;;;;20.10;99.90;;;;;;2088369;28;1108;-62
2021/07/30 03:46:21;;;;;;;;;;;20.10;99.90;;;;;;2091973;28;1322;-63
2021/07/30 03:47:40;;;;;;;;;;;20.10;99.90;;;;;;2085927;28;1460;-61
2021/07/30 03:49:00;;;;;;;;;;;20.10;99.90;;;;;;2084589;28;1963;-64
2021/07/30 03:50:19;;;;;;;;;;;20.10;99.90;;;;;;2084030;28;1261;-63
2021/07/30 03:51:38;;;;;;;;;;;20.10;99.90;;;;;;2086437;28;1315;-63
2021/07/30 03:53:00;;;;;;;;;;;20.10;99.90;;;;;;2087663;28;1394;-62
2021/07/30 03:54:20;;;;;;;;;;;20.00;99.90;;;;;;2084308;28;1384;-62
2021/07/30 03:55:39;;;;;;;;;;;20.10;99.90;;;;;;2088407;28;1265;-63
2021/07/30 03:56:58;;;;;;;;;;;20.10;99.90;;;;;;2079604;28;1426;-63
2021/07/30 03:58:17;;;;;;;;;;;20.10;99.90;;;;;;2079421;28;1394;-62
2021/07/30 03:59:37;;;;;;;;;;;20.00;99.90;;;;;;2084997;28;1563;-62
2021/07/30 04:00:56;;;;;;;;;;;20.00;99.90;;;;;;2085954;28;1308;-63
2021/07/30 04:02:18;;;;;;;;;;;20.00;99.90;;;;;;2096361;28;1165;-64
2021/07/30 04:03:37;;;;;;;;;;;20.00;99.90;;;;;;2090167;28;1220;-63
2021/07/30 04:04:56;;;;;;;;;;;20.00;99.90;;;;;;2084470;28;1625;-63
2021/07/30 04:06:16;;;;;;;;;;;20.00;99.90;;;;;;2087970;28;1406;-63
2021/07/30 04:07:35;;;;;;;;;;;20.00;99.90;;;;;;2088083;28;1459;-66
2021/07/30 04:08:54;;;;;;;;;;;20.00;99.90;;;;;;2082298;28;1906;-61
2021/07/30 04:10:14;;;;;;;;;;;20.00;99.90;;;;;;2094362;28;1448;-66
2021/07/30 04:11:33;;;;;;;;;;;20.00;99.90;;;;;;2087217;28;1421;-66
2021/07/30 04:12:52;;;;;;;;;;;20.00;99.90;;;;;;2088577;28;1532;-62
2021/07/30 04:14:11;;;;;;;;;;;20.00;99.90;;;;;;2088392;28;1647;-63
2021/07/30 04:15:31;;;;;;;;;;;20.00;99.90;;;;;;2097193;28;1430;-65
2021/07/30 04:16:50;;;;;;;;;;;19.90;99.90;;;;;;2088003;28;1265;-63
2021/07/30 04:18:09;;;;;;;;;;;19.70;97.20;;;;;;2088436;28;1383;-63
2021/07/30 04:19:28;;;;;;;;;;;19.60;96.40;;;;;;2087572;28;1435;-62
2021/07/30 04:20:47;;;;;;;;;;;19.50;97.80;;;;;;2072552;28;1159;-67
2021/07/30 04:22:07;;;;;;;;;;;19.50;98.50;;;;;;2079163;28;1394;-64
2021/07/30 04:23:26;;;;;;;;;;;19.50;98.70;;;;;;2083235;28;1338;-63
2021/07/30 04:24:45;;;;;;;;;;;19.50;99.10;;;;;;2087758;28;1575;-63
2021/07/30 04:26:07;;;;;;;;;;;19.60;99.90;;;;;;2087272;28;1256;-62
2021/07/30 04:27:25;;;;;;;;;;;19.60;99.90;;;;;;2082666;28;1535;-63
2021/07/30 04:28:44;;;;;;;;;;;19.60;99.90;;;;;;2084265;28;1914;-63
2021/07/30 04:30:04;;;;;;;;;;;19.70;99.90;;;;;;2094544;28;1251;-63
2021/07/30 04:31:23;;;;;;;;;;;19.70;99.90;;;;;;2086830;28;1401;-63
2021/07/30 04:32:42;;;;;;;;;;;19.70;99.90;;;;;;2076495;28;1303;-64
2021/07/30 04:34:01;;;;;;;;;;;19.70;99.90;;;;;;2081498;28;1524;-64
2021/07/30 04:35:21;;;;;;;;;;;19.70;99.90;;;;;;2099293;28;1632;-62
2021/07/30 04:36:40;;;;;;;;;;;19.70;99.90;;;;;;2087372;28;1820;-63
2021/07/30 04:37:59;;;;;;;;;;;19.70;99.90;;;;;;2084416;28;1501;-61
2021/07/30 04:39:19;;;;;;;;;;;19.80;99.90;;;;;;2086686;28;1781;-65
2021/07/30 04:40:38;;;;;;;;;;;19.80;99.90;;;;;;2087772;28;1470;-63
2021/07/30 04:41:58;;;;;;;;;;;19.80;99.90;;;;;;2089320;28;1376;-63
2021/07/30 04:43:17;;;;;;;;;;;19.80;99.90;;;;;;2077562;28;1419;-63
2021/07/30 04:44:36;;;;;;;;;;;19.80;99.90;;;;;;2081437;28;1674;-64
2021/07/30 04:45:55;;;;;;;;;;;19.80;99.90;;;;;;2082767;28;1394;-64
2021/07/30 04:47:14;;;;;;;;;;;19.80;99.90;;;;;;2085618;28;1379;-62
2021/07/30 04:48:34;;;;;;;;;;;19.80;99.90;;;;;;2088405;28;1902;-63
2021/07/30 04:49:53;;;;;;;;;;;19.80;99.90;;;;;;2085641;28;1165;-63
2021/07/30 04:51:12;;;;;;;;;;;19.80;99.90;;;;;;2087804;28;1443;-64
2021/07/30 04:52:31;;;;;;;;;;;19.80;99.90;;;;;;2086611;28;1308;-60
2021/07/30 04:53:51;;;;;;;;;;;19.80;99.90;;;;;;2085572;28;1373;-61
2021/07/30 04:55:10;;;;;;;;;;;19.80;99.90;;;;;;2089390;28;1367;-61
2021/07/30 04:56:29;;;;;;;;;;;19.80;99.90;;;;;;2098407;28;1482;-62
2021/07/30 04:57:48;;;;;;;;;;;19.70;98.60;;;;;;2093087;28;1488;-60
2021/07/30 04:59:08;;;;;;;;;;;19.50;97.50;;;;;;2088866;28;1476;-61
2021/07/30 05:00:27;;;;;;;;;;;19.40;97.10;;;;;;2084559;28;1162;-63
2021/07/30 05:01:46;;;;;;;;;;;19.20;96.90;;;;;;2087301;28;1178;-61
2021/07/30 05:03:05;;;;;;;;;;;19.10;97.40;;;;;;2085361;28;1241;-59
2021/07/30 05:04:25;;;;;;;;;;;19.10;98.30;;;;;;2090539;28;1748;-62
2021/07/30 05:05:44;;;;;;;;;;;19.00;99.10;;;;;;2089880;28;1405;-61
2021/07/30 05:07:03;;;;;;;;;;;19.00;99.60;;;;;;2087164;28;1317;-63
2021/07/30 05:08:22;;;;;;;;;;;19.10;99.10;;;;;;2090187;28;1909;-62
2021/07/30 05:09:42;;;;;;;;;;;19.20;99.20;;;;;;2090872;28;1171;-60
2021/07/30 05:11:01;;;;;;;;;;;19.30;99.40;;;;;;2088396;28;1376;-63
2021/07/30 05:12:20;;;;;;;;;;;19.40;99.60;;;;;;2094657;28;1359;-64
2021/07/30 05:13:40;;;;;;;;;;;19.40;99.70;;;;;;2085937;28;1194;-62
2021/07/30 05:14:59;;;;;;;;;;;19.50;99.70;;;;;;2099411;28;1271;-63
2021/07/30 05:16:19;;;;;;;;;;;19.50;99.60;;;;;;2082638;28;1633;-62
2021/07/30 05:17:40;;;;;;;;;;;19.50;99.60;;;;;;2084634;28;1307;-63
2021/07/30 05:19:00;;;;;;;;;;;19.60;99.70;;;;;;2088083;28;1342;-63
2021/07/30 05:20:19;;;;;;;;;;;19.50;99.60;;;;;;2090878;28;1617;-62
2021/07/30 05:21:38;;;;;;;;;;;19.60;99.50;;;;;;2082245;28;1433;-61
2021/07/30 05:22:57;;;;;;;;;;;19.60;99.90;;;;;;2081194;28;1393;-63
2021/07/30 05:24:17;;;;;;;;;;;19.60;99.70;;;;;;2090627;28;1314;-63
2021/07/30 05:25:36;;;;;;;;;;;19.60;99.70;;;;;;2100831;28;1140;-63
2021/07/30 05:26:55;;;;;;;;;;;19.60;99.80;;;;;;2093051;28;1383;-62
2021/07/30 05:28:15;;;;;;;;;;;19.70;99.90;;;;;;2090174;28;1979;-62
2021/07/30 05:29:34;;;;;;;;;;;19.70;99.90;;;;;;2101455;28;1406;-62
2021/07/30 05:30:54;;;;;;;;;;;19.70;99.90;;;;;;2089647;28;1368;-63
2021/07/30 05:32:14;;;;;;;;;;;19.70;99.90;;;;;;2087430;28;1468;-63
2021/07/30 05:33:35;;;;;;;;;;;19.70;99.90;;;;;;2089427;28;1506;-63
2021/07/30 05:34:55;;;;;;;;;;;19.70;99.90;;;;;;2091055;28;1623;-63
2021/07/30 05:36:15;;;;;;;;;;;19.70;99.90;;;;;;2090693;28;1257;-63
2021/07/30 05:37:34;;;;;;;;;;;19.70;99.90;;;;;;2091443;28;1405;-63
2021/07/30 05:38:53;;;;;;;;;;;19.70;99.90;;;;;;2086524;28;1130;-63
2021/07/30 05:40:13;;;;;;;;;;;19.70;99.90;;;;;;2087546;28;1291;-63
2021/07/30 05:41:32;;;;;;;;;;;19.70;99.90;;;;;;2077473;28;1427;-61
2021/07/30 05:42:51;;;;;;;;;;;19.70;99.90;;;;;;2083761;28;1431;-62
2021/07/30 05:44:11;;;;;;;;;;;19.70;99.90;;;;;;2090833;28;1519;-63
2021/07/30 05:45:30;;;;;;;;;;;19.70;99.90;;;;;;2088958;28;1687;-62
2021/07/30 05:46:49;;;;;;;;;;;19.70;99.90;;;;;;2090576;28;1114;-61
2021/07/30 05:48:08;;;;;;;;;;;19.70;99.90;;;;;;2090160;28;1980;-62
2021/07/30 05:49:27;;;;;;;;;;;19.70;99.90;;;;;;2090630;28;1092;-63
2021/07/30 05:50:49;;;;;;;;;;;19.70;99.90;;;;;;2089243;28;1110;-63
2021/07/30 05:52:09;;;;;;;;;;;19.80;99.90;;;;;;2079857;28;1379;-62
2021/07/30 05:53:28;;;;;;;;;;;19.80;99.90;;;;;;2095413;28;1034;-61
2021/07/30 05:54:48;;;;;;;;;;;19.80;99.90;;;;;;2084663;28;1272;-61
2021/07/30 05:56:07;;;;;;;;;;;19.80;99.90;;;;;;2085047;28;1638;-63
2021/07/30 05:57:26;;;;;;;;;;;19.80;99.90;;;;;;2089853;28;1378;-63
2021/07/30 05:58:45;;;;;;;;;;;19.80;99.90;;;;;;2087739;28;1054;-64
2021/07/30 06:00:07;;;;;;;;;;;19.80;99.90;;;;;;2087709;28;1216;-63
2021/07/30 06:01:29;;;;;;;;;;;19.90;99.90;;;;;;2100222;28;1224;-65
2021/07/30 06:02:48;;;;;;;;;;;19.90;99.90;;;;;;2089263;28;1242;-63
2021/07/30 06:04:07;;;;;;;;;;;19.80;99.90;;;;;;2087300;28;1298;-64
2021/07/30 06:05:26;;;;;;;;;;;19.90;99.90;;;;;;2087429;28;1248;-63
2021/07/30 06:06:46;;;;;;;;;;;19.90;99.90;;;;;;2087556;28;1029;-65
2021/07/30 06:08:05;;;;;;;;;;;19.90;99.90;;;;;;2088146;28;1446;-65
2021/07/30 06:09:25;;;;;;;;;;;19.90;99.90;;;;;;2089979;28;1066;-63
2021/07/30 06:10:44;;;;;;;;;;;19.90;99.90;;;;;;2089238;28;1121;-61
2021/07/30 06:12:04;;;;;;;;;;;19.90;99.90;;;;;;2086600;28;1463;-62
2021/07/30 06:13:23;;;;;;;;;;;19.90;99.90;;;;;;2096594;28;1327;-64
2021/07/30 06:14:44;;;;;;;;;;;20.00;99.90;;;;;;2093268;28;1017;-64
2021/07/30 06:16:06;;;;;;;;;;;20.00;99.90;;;;;;2084679;28;982;-64
2021/07/30 06:17:25;;;;;;;;;;;20.00;99.90;;;;;;2090010;28;1297;-64
2021/07/30 06:18:45;;;;;;;;;;;20.00;99.90;;;;;;2089782;28;1276;-63
2021/07/30 06:20:05;;;;;;;;;;;20.00;99.90;;;;;;2087632;28;1254;-64
2021/07/30 06:21:24;;;;;;;;;;;20.00;99.90;;;;;;2098653;28;1160;-64
2021/07/30 06:22:43;;;;;;;;;;;20.00;99.90;;;;;;2091030;28;1067;-64
2021/07/30 06:24:03;;;;;;;;;;;20.00;99.90;;;;;;2087274;28;1324;-61
2021/07/30 06:25:23;;;;;;;;;;;20.00;99.90;;;;;;2090232;28;1503;-63
2021/07/30 06:26:42;;;;;;;;;;;20.00;99.90;;;;;;2099469;28;1082;-64
2021/07/30 06:28:02;;;;;;;;;;;20.00;99.90;;;;;;2092911;28;1374;-63
2021/07/30 06:29:22;;;;;;;;;;;20.00;99.90;;;;;;2088764;28;1443;-65
2021/07/30 06:30:41;;;;;;;;;;;20.00;99.90;;;;;;2074862;28;1628;-64
2021/07/30 06:32:00;;;;;;;;;;;20.00;99.90;;;;;;2086650;28;1250;-64
2021/07/30 06:33:22;;;;;;;;;;;20.00;99.90;;;;;;2099581;28;1193;-63
2021/07/30 06:34:41;;;;;;;;;;;20.00;99.90;;;;;;2084961;28;1156;-64
2021/07/30 06:36:03;;;;;;;;;;;20.00;99.90;;;;;;2085852;28;1291;-64
2021/07/30 06:37:22;;;;;;;;;;;20.00;99.90;;;;;;2100990;28;1426;-64
2021/07/30 06:38:41;;;;;;;;;;;20.00;99.90;;;;;;2090879;28;1320;-63
2021/07/30 06:40:01;;;;;;;;;;;20.00;99.90;;;;;;2088323;28;1259;-68
2021/07/30 06:41:20;;;;;;;;;;;20.00;99.90;;;;;;2090456;28;1422;-63
2021/07/30 06:42:39;;;;;;;;;;;20.00;99.90;;;;;;2090443;28;1387;-64
2021/07/30 06:43:58;;;;;;;;;;;20.00;99.90;;;;;;2091209;28;1447;-65
2021/07/30 06:45:18;;;;;;;;;;;20.10;99.90;;;;;;2086363;28;1668;-63
2021/07/30 06:46:37;;;;;;;;;;;20.10;99.90;;;;;;2085788;28;1295;-64
2021/07/30 06:47:56;;;;;;;;;;;20.10;99.90;;;;;;2087973;28;1527;-64
2021/07/30 06:49:15;;;;;;;;;;;20.00;99.90;;;;;;2086654;28;1115;-64
2021/07/30 06:50:35;;;;;;;;;;;20.10;99.90;;;;;;2088317;28;1179;-63
2021/07/30 06:51:54;;;;;;;;;;;20.10;99.90;;;;;;2090686;28;1382;-63
2021/07/30 06:53:13;;;;;;;;;;;20.10;99.90;;;;;;2088995;28;1411;-64
2021/07/30 06:54:33;;;;;;;;;;;20.10;99.90;;;;;;2086487;28;1338;-63
2021/07/30 06:55:52;;;;;;;;;;;20.10;99.90;;;;;;2085832;28;1656;-63
2021/07/30 06:57:11;;;;;;;;;;;20.10;99.90;;;;;;2085256;28;1215;-64
2021/07/30 06:58:30;;;;;;;;;;;20.10;99.90;;;;;;2082085;28;1173;-65
2021/07/30 06:59:50;;;;;;;;;;;20.10;99.90;;;;;;2084618;28;1324;-65
2021/07/30 07:01:09;;;;;;;;;;;20.10;99.90;;;;;;2094816;28;1309;-63
2021/07/30 07:02:28;;;;;;;;;;;20.10;99.90;;;;;;2089546;28;1336;-63
2021/07/30 07:03:48;;;;;;;;;;;20.10;99.90;;;;;;2077586;28;1164;-63
2021/07/30 07:05:07;;;;;;;;;;;20.10;99.90;;;;;;2074300;28;1696;-63
2021/07/30 07:06:27;;;;;;;;;;;20.10;99.90;;;;;;2083258;28;1600;-63
2021/07/30 07:07:46;;;;;;;;;;;20.10;99.90;;;;;;2094336;28;1506;-64
2021/07/30 07:09:05;;;;;;;;;;;20.10;99.90;;;;;;2087962;28;1918;-64
2021/07/30 07:10:24;;;;;;;;;;;20.10;99.90;;;;;;2084967;28;1223;-63
2021/07/30 07:11:43;;;;;;;;;;;20.10;99.90;;;;;;2080605;28;1795;-63
2021/07/30 07:13:03;;;;;;;;;;;20.10;99.90;;;;;;2085141;28;1444;-62
2021/07/30 07:14:22;;;;;;;;;;;20.10;99.90;;;;;;2086395;28;1512;-62
2021/07/30 07:15:44;;;;;;;;;;;20.10;99.90;;;;;;2088318;28;1545;-62
2021/07/30 07:17:03;;;;;;;;;;;20.10;99.90;;;;;;2094803;28;1391;-63
2021/07/30 07:18:22;;;;;;;;;;;20.10;99.90;;;;;;2089440;28;1644;-61
2021/07/30 07:19:43;;;;;;;;;;;20.10;99.90;;;;;;2086890;28;1284;-63
2021/07/30 07:21:02;;;;;;;;;;;20.10;99.90;;;;;;2087183;28;1135;-62
2021/07/30 07:22:21;;;;;;;;;;;20.10;99.90;;;;;;2089837;28;1436;-64
2021/07/30 07:23:41;;;;;;;;;;;20.10;99.90;;;;;;2093454;28;1127;-63
2021/07/30 07:25:01;;;;;;;;;;;20.10;99.90;;;;;;2086527;28;1371;-62
2021/07/30 07:26:20;;;;;;;;;;;20.10;99.90;;;;;;2077665;28;1245;-63
2021/07/30 07:27:39;;;;;;;;;;;20.10;99.90;;;;;;2086354;28;1476;-62
2021/07/30 07:28:58;;;;;;;;;;;20.10;99.90;;;;;;2093401;28;2001;-61
2021/07/30 07:30:19;;;;;;;;;;;20.10;99.90;;;;;;2085673;28;1453;-62
2021/07/30 07:31:38;;;;;;;;;;;20.10;99.90;;;;;;2089720;28;1186;-63
2021/07/30 07:32:57;;;;;;;;;;;20.10;99.90;;;;;;2086577;28;1450;-62
2021/07/30 07:34:17;;;;;;;;;;;20.10;99.90;;;;;;2095711;28;1459;-61
2021/07/30 07:35:36;;;;;;;;;;;20.20;99.90;;;;;;2089537;28;1759;-62
2021/07/30 07:36:55;;;;;;;;;;;20.20;99.90;;;;;;2096425;28;945;-60
2021/07/30 07:38:15;;;;;;;;;;;20.20;99.90;;;;;;2096491;28;1357;-62
2021/07/30 07:39:34;;;;;;;;;;;20.20;99.90;;;;;;2099923;28;1137;-61
2021/07/30 07:40:53;;;;;;;;;;;20.20;99.90;;;;;;2093530;28;995;-62
2021/07/30 07:42:12;;;;;;;;;;;20.20;99.90;;;;;;2084320;28;1066;-62
2021/07/30 07:43:31;;;;;;;;;;;20.20;99.90;;;;;;2080118;28;1522;-62
2021/07/30 07:44:51;;;;;;;;;;;20.20;99.90;;;;;;2087909;28;1261;-62
2021/07/30 07:46:10;;;;;;;;;;;20.20;99.90;;;;;;2079974;28;1258;-62
2021/07/30 07:47:29;;;;;;;;;;;20.20;99.90;;;;;;2088374;28;1486;-62
2021/07/30 07:48:48;;;;;;;;;;;20.20;99.90;;;;;;2099274;28;2040;-62
2021/07/30 07:50:08;;;;;;;;;;;20.20;99.90;;;;;;2088480;28;1188;-60
2021/07/30 07:51:27;;;;;;;;;;;20.20;99.90;;;;;;2097525;28;1240;-60